Calais, Maine
Current Conditions -  °F | °C
As of 11:00 PM on Thursday 20 Nov 2014 (Local Time) from CYFC Reporting Station
Overcast Overcast  
Wind Chill: 20°   Ceiling: 7500
Heat Index: 27°   Visibility: 9mi
Dew Point: 19°   Wind: 6mph
Humidity: 74%   Direction: 240°WSW
Pressure: 29.74"   Gusts: NA
Location:  45.18°N, 67.28°W
Report Text: CYFC 210400Z AUTO 24005KT 9SM OVC075 M03/M07 A2974 RMK SLP073
Loading
Personal Weather Stations






























Interactive Weather Map New forecast layout! Learn more

10-Day Weather Forecast

Advertisements
Track Severe Weather on mobile